Time;durP1;ratioP1;P1;durP2;ratioP2;P2;SDS_P1;SDS_P2;PMS_P1;PMS_P2;Temp;Humidity;BMP_temperature;BMP_pressure;BME280_temperature;BME280_humidity;BME280_pressure;Samples;Min_cycle;Max_cycle;Signal;HPM_P1;HPM_P2
2023/07/10 00:01:33;;;;;;;7.13;4.15;;;;;;;22.16;66.51;97473.56;5065668;28;20094;-42
2023/07/10 00:04:00;;;;;;;11.48;4.13;;;;;;;22.43;63.81;97469.59;5072377;28;20552;-40
2023/07/10 00:06:27;;;;;;;7.78;4.10;;;;;;;22.61;63.73;97464.06;5071795;28;20040;-43
2023/07/10 00:08:54;;;;;;;8.68;4.05;;;;;;;22.85;63.06;97470.97;5075151;28;20407;-42
2023/07/10 00:11:27;;;;;;;9.63;4.28;;;;;;;23.04;62.83;97467.00;5069625;28;20102;-41
2023/07/10 00:13:55;;;;;;;7.00;3.75;;;;;;;23.19;62.66;97471.13;5071552;28;20064;-40
2023/07/10 00:16:23;;;;;;;8.40;4.70;;;;;;;23.40;62.96;97468.44;5067450;28;20484;-42
2023/07/10 00:18:50;;;;;;;8.57;3.95;;;;;;;23.48;62.25;97464.81;5070392;28;20122;-42
2023/07/10 00:21:17;;;;;;;8.15;4.47;;;;;;;23.55;61.90;97467.03;5073062;28;20036;-42
2023/07/10 00:23:45;;;;;;;8.95;4.18;;;;;;;23.62;61.89;97478.38;5073662;28;20048;-41
2023/07/10 00:26:23;;;;;;;5.88;4.15;;;;;;;23.68;61.44;97470.69;5077679;28;20723;-42
2023/07/10 00:28:52;;;;;;;6.97;4.25;;;;;;;23.63;61.72;97474.44;5070026;28;20059;-40
2023/07/10 00:31:20;;;;;;;8.13;3.97;;;;;;;23.61;61.68;97476.75;5069807;28;20043;-40
2023/07/10 00:33:49;;;;;;;7.95;4.00;;;;;;;23.58;62.03;97473.88;5067829;28;20140;-41
2023/07/10 00:36:25;;;;;;;7.32;4.50;;;;;;;23.46;62.77;97469.06;5070271;28;20032;-41
2023/07/10 00:38:52;;;;;;;8.27;4.20;;;;;;;23.36;63.18;97467.47;5073046;28;20424;-41
2023/07/10 00:41:22;;;;;;;6.57;4.05;;;;;;;23.28;64.07;97447.03;5074110;28;20073;-43
2023/07/10 00:43:55;;;;;;;6.82;4.32;;;;;;;23.25;63.94;97450.47;5067450;28;20063;-42
2023/07/10 00:46:33;;;;;;;7.85;4.55;;;;;;;23.21;64.19;97458.63;5069690;28;20606;-42
2023/07/10 00:49:10;;;;;;;8.35;4.43;;;;;;;23.04;65.06;97453.19;5064702;28;20040;-41
2023/07/10 00:51:44;;;;;;;8.48;4.15;;;;;;;22.91;65.93;97455.84;5070149;28;20050;-42
2023/07/10 00:54:24;;;;;;;7.97;4.45;;;;;;;22.87;65.52;97463.16;5068646;28;20396;-42
2023/07/10 00:56:54;;;;;;;10.38;4.55;;;;;;;22.67;67.01;97482.06;5067975;28;20036;-41
2023/07/10 00:59:25;;;;;;;9.48;4.60;;;;;;;22.60;67.51;97495.56;5072608;28;20036;-41
2023/07/10 01:02:07;;;;;;;6.90;4.03;;;;;;;22.66;66.87;97497.00;5064837;28;20632;-42
2023/07/10 01:04:41;;;;;;;7.30;4.38;;;;;;;22.66;67.43;97496.22;5063813;28;20048;-41
2023/07/10 01:07:12;;;;;;;8.07;3.92;;;;;;;22.54;68.08;97510.63;5077499;28;20064;-43
2023/07/10 01:09:44;;;;;;;8.93;4.40;;;;;;;22.52;68.04;97518.44;5073384;28;20032;-45
2023/07/10 01:12:11;;;;;;;7.70;4.60;;;;;;;22.49;68.12;97528.19;5067586;28;20159;-42
2023/07/10 01:14:38;;;;;;;8.07;4.30;;;;;;;22.38;68.59;97535.16;5067686;28;20039;-42
2023/07/10 01:17:08;;;;;;;9.70;4.82;;;;;;;22.37;68.72;97528.03;5071417;28;20111;-42
2023/07/10 01:19:36;;;;;;;9.73;4.82;;;;;;;22.19;69.74;97537.13;5067145;28;20040;-43
2023/07/10 01:22:04;;;;;;;6.13;3.80;;;;;;;22.05;70.47;97537.31;5069130;28;20036;-40
2023/07/10 01:24:30;;;;;;;7.43;4.15;;;;;;;21.98;70.53;97536.16;5065957;28;20455;-40
2023/07/10 01:26:57;;;;;;;5.90;3.92;;;;;;;21.95;70.35;97535.69;5065886;28;20040;-42
2023/07/10 01:29:28;;;;;;;9.98;4.32;;;;;;;22.01;70.51;97535.50;5065772;28;20045;-40
2023/07/10 01:31:55;;;;;;;;;;;;;;;21.60;72.68;97534.78;5064040;28;20064;-41
2023/07/10 01:34:34;;;;;;;7.60;4.35;;;;;;;21.35;73.57;97532.47;5053808;28;19951;-42
2023/07/10 01:37:03;;;;;;;10.43;4.22;;;;;;;21.39;73.20;97535.38;5072035;28;20107;-40
2023/07/10 01:39:41;;;;;;;9.52;3.78;;;;;;;21.39;73.46;97529.88;5071853;28;20503;-40
2023/07/10 01:42:08;;;;;;;9.15;5.15;;;;;;;21.21;74.88;97517.97;5064064;28;20649;-40
2023/07/10 01:44:39;;;;;;;6.93;4.15;;;;;;;21.03;75.71;97512.41;5073005;28;20424;-39
2023/07/10 01:47:07;;;;;;;7.68;4.72;;;;;;;20.95;76.63;97515.94;5068212;28;20487;-40
2023/07/10 01:49:39;;;;;;;7.97;4.30;;;;;;;20.89;76.87;97540.84;5069575;28;20676;-44
2023/07/10 01:52:08;;;;;;;8.27;4.63;;;;;;;20.66;78.19;97540.88;5062524;28;20044;-40
2023/07/10 01:54:35;;;;;;;7.47;4.82;;;;;;;20.56;78.42;97534.81;5071796;28;20036;-40
2023/07/10 01:57:03;;;;;;;7.80;3.83;;;;;;;20.42;79.49;97523.88;5068219;28;20043;-40
2023/07/10 01:59:30;;;;;;;9.00;4.53;;;;;;;20.52;79.09;97535.44;5067767;28;20465;-41
2023/07/10 02:01:58;;;;;;;7.63;4.13;;;;;;;20.67;78.28;97522.41;5064268;28;20044;-42
2023/07/10 02:04:26;;;;;;;10.45;4.45;;;;;;;20.69;77.83;97519.34;5070472;28;20125;-42
2023/07/10 02:06:56;;;;;;;11.70;4.78;;;;;;;20.63;78.67;97524.97;5074375;28;20055;-39
2023/07/10 02:09:25;;;;;;;11.00;4.53;;;;;;;20.78;77.92;97517.44;5074659;28;20044;-40
2023/07/10 02:11:52;;;;;;;7.60;4.53;;;;;;;20.92;77.01;97498.13;5077054;28;20068;-41
2023/07/10 02:14:19;;;;;;;11.32;4.35;;;;;;;21.08;76.06;97495.75;5073807;28;20040;-40
2023/07/10 02:16:46;;;;;;;6.90;3.85;;;;;;;21.16;75.96;97491.41;5076225;28;20123;-42
2023/07/10 02:19:16;;;;;;;8.05;4.25;;;;;;;20.96;76.88;97493.59;5072381;28;20036;-41
2023/07/10 02:21:42;;;;;;;6.65;4.38;;;;;;;20.94;77.46;97503.31;5067535;28;20041;-43
2023/07/10 02:24:09;;;;;;;9.07;4.80;;;;;;;20.91;77.23;97502.84;5068731;28;20049;-40
2023/07/10 02:26:36;;;;;;;7.93;4.90;;;;;;;20.90;77.54;97505.91;5074742;28;20033;-41
2023/07/10 02:29:03;;;;;;;11.27;4.35;;;;;;;20.97;76.40;97516.44;5073633;28;20414;-40
2023/07/10 02:31:30;;;;;;;11.68;4.20;;;;;;;21.00;76.91;97532.31;5076932;28;20503;-39
2023/07/10 02:33:57;;;;;;;8.35;3.97;;;;;;;21.04;77.08;97530.53;5072813;28;20045;-41
2023/07/10 02:36:24;;;;;;;6.20;4.60;;;;;;;21.09;76.30;97529.59;5065324;28;20033;-40
2023/07/10 02:38:53;;;;;;;8.23;4.28;;;;;;;21.05;76.84;97538.50;5076835;28;20049;-40
2023/07/10 02:41:19;;;;;;;10.30;5.32;;;;;;;21.06;76.46;97550.31;5072282;28;20109;-41
2023/07/10 02:43:46;;;;;;;7.88;4.13;;;;;;;21.10;76.58;97542.22;5064415;28;20052;-40
2023/07/10 02:46:13;;;;;;;8.73;4.72;;;;;;;21.23;76.81;97543.28;5073869;28;20036;-40
2023/07/10 02:48:39;;;;;;;9.52;4.57;;;;;;;21.15;77.60;97533.81;5067476;28;20626;-42
2023/07/10 02:51:06;;;;;;;8.75;4.55;;;;;;;21.13;80.91;97523.16;5070252;28;20639;-40
2023/07/10 02:53:33;;;;;;;7.30;4.82;;;;;;;21.22;80.93;97505.84;5074428;28;20032;-41
2023/07/10 02:55:59;;;;;;;10.13;4.93;;;;;;;21.31;80.86;97509.44;5074904;28;20069;-41
2023/07/10 02:58:26;;;;;;;8.10;3.90;;;;;;;21.04;81.83;97514.03;5072528;28;20048;-40
2023/07/10 03:00:58;;;;;;;10.07;5.40;;;;;;;20.86;83.52;97497.41;5075042;28;20048;-41
2023/07/10 03:03:26;;;;;;;8.38;4.97;;;;;;;20.80;81.29;97495.94;5069377;28;20067;-44
2023/07/10 03:05:58;;;;;;;8.48;4.50;;;;;;;20.87;80.16;97503.75;5069735;28;20081;-41
2023/07/10 03:08:26;;;;;;;10.38;5.00;;;;;;;20.77;81.80;97518.56;5076172;28;20052;-41
2023/07/10 03:11:04;;;;;;;12.35;5.70;;;;;;;20.51;83.05;97524.75;5073218;28;20481;-42
2023/07/10 03:13:31;;;;;;;7.88;4.10;;;;;;;20.59;82.40;97536.91;5071463;28;20539;-42
2023/07/10 03:16:03;;;;;;;7.60;4.50;;;;;;;20.83;80.12;97542.09;5067788;28;20118;-41
2023/07/10 03:18:30;;;;;;;8.50;4.20;;;;;;;21.07;78.10;97560.19;5063026;28;20519;-42
2023/07/10 03:20:57;;;;;;;9.23;4.22;;;;;;;21.36;75.61;97569.06;5075166;28;20044;-43
2023/07/10 03:23:23;;;;;;;9.45;4.50;;;;;;;21.82;72.78;97577.97;5068329;28;20036;-43
2023/07/10 03:25:50;;;;;;;12.15;4.22;;;;;;;22.01;71.51;97563.91;5073052;28;20050;-41
2023/07/10 03:28:17;;;;;;;7.70;4.18;;;;;;;22.07;71.46;97570.03;5076345;28;20446;-42
2023/07/10 03:30:44;;;;;;;9.48;4.20;;;;;;;22.00;72.01;97591.78;5074922;28;20041;-43
2023/07/10 03:33:13;;;;;;;9.05;4.03;;;;;;;22.11;70.54;97586.78;5067030;28;20044;-42
2023/07/10 03:35:40;;;;;;;8.10;4.00;;;;;;;22.18;70.37;97584.31;5070144;28;20040;-42
2023/07/10 03:38:07;;;;;;;9.82;4.30;;;;;;;22.17;70.76;97591.81;5068838;28;20052;-40
2023/07/10 03:40:33;;;;;;;7.38;4.10;;;;;;;22.12;71.48;97588.38;5074218;28;20051;-41
2023/07/10 03:43:00;;;;;;;6.65;4.07;;;;;;;22.15;70.77;97591.28;5070520;28;20055;-42
2023/07/10 03:45:30;;;;;;;8.63;4.15;;;;;;;22.22;70.37;97593.56;5071195;28;20055;-41
2023/07/10 03:47:57;;;;;;;13.30;4.20;;;;;;;22.28;70.06;97599.75;5068452;28;20079;-40
2023/07/10 03:50:23;;;;;;;6.75;4.20;;;;;;;22.27;70.61;97603.63;5066470;28;21321;-42
2023/07/10 03:52:50;;;;;;;10.30;4.20;;;;;;;22.30;70.38;97617.59;5069388;28;20127;-42
2023/07/10 03:55:17;;;;;;;6.93;4.85;;;;;;;22.22;70.36;97612.88;5064547;28;20750;-40
2023/07/10 03:57:43;;;;;;;9.77;4.45;;;;;;;22.20;70.81;97606.88;5068163;28;20032;-40
2023/07/10 04:00:10;;;;;;;9.90;4.13;;;;;;;22.15;71.18;97604.28;5067339;28;20047;-42
2023/07/10 04:02:39;;;;;;;7.88;4.65;;;;;;;22.06;71.98;97590.47;5065847;28;20046;-40
2023/07/10 04:05:06;;;;;;;7.65;3.92;;;;;;;22.07;71.80;97581.06;5067428;28;20040;-41
2023/07/10 04:07:32;;;;;;;8.20;4.28;;;;;;;22.03;72.41;97575.41;5070023;28;20687;-41
2023/07/10 04:09:59;;;;;;;8.98;4.60;;;;;;;22.06;72.45;97584.97;5066359;28;20056;-40
2023/07/10 04:12:25;;;;;;;10.85;4.65;;;;;;;22.03;72.55;97591.13;5069108;28;20044;-45
2023/07/10 04:14:54;;;;;;;7.47;3.92;;;;;;;22.12;72.02;97591.97;5063087;28;20056;-42
2023/07/10 04:17:20;;;;;;;12.18;4.88;;;;;;;22.15;72.02;97599.56;5069851;28;20048;-43
2023/07/10 04:19:47;;;;;;;9.77;4.65;;;;;;;22.06;73.29;97615.28;5073414;28;20040;-41
2023/07/10 04:22:14;;;;;;;7.22;4.70;;;;;;;22.08;73.13;97619.34;5064151;28;20040;-42
2023/07/10 04:24:41;;;;;;;8.80;3.95;;;;;;;22.17;71.88;97616.63;5063057;28;20053;-44
2023/07/10 04:27:08;;;;;;;8.63;5.43;;;;;;;22.27;71.55;97617.44;5064167;28;20040;-42
2023/07/10 04:29:35;;;;;;;9.65;5.35;;;;;;;22.29;71.37;97615.97;5061727;28;20097;-40
2023/07/10 04:32:02;;;;;;;9.27;5.03;;;;;;;22.30;72.27;97623.09;5072856;28;20430;-45
2023/07/10 04:34:28;;;;;;;8.25;5.30;;;;;;;22.20;73.17;97624.25;5063734;28;20039;-41
2023/07/10 04:36:55;;;;;;;8.13;4.57;;;;;;;22.15;73.36;97624.38;5065934;28;20044;-44
2023/07/10 04:39:21;;;;;;;7.85;3.75;;;;;;;22.04;74.71;97632.16;5069705;28;20374;-42
2023/07/10 04:41:48;;;;;;;15.13;4.38;;;;;;;21.85;76.10;97626.94;5069379;28;20052;-42
2023/07/10 04:44:14;;;;;;;7.53;4.15;;;;;;;21.62;77.68;97639.94;5066100;28;20079;-42
2023/07/10 04:46:41;;;;;;;9.43;4.47;;;;;;;21.66;77.38;97628.00;5060826;28;20051;-43
2023/07/10 04:49:08;;;;;;;8.65;4.47;;;;;;;21.75;76.56;97618.97;5066253;28;20630;-42
2023/07/10 04:51:34;;;;;;;7.80;4.43;;;;;;;21.91;75.32;97622.91;5062105;28;20055;-43
2023/07/10 04:54:01;;;;;;;7.43;4.72;;;;;;;22.00;76.12;97639.44;5071290;28;20048;-43
2023/07/10 04:56:27;;;;;;;8.82;4.68;;;;;;;21.80;76.69;97649.13;5070559;28;20040;-41
2023/07/10 04:58:56;;;;;;;8.95;4.10;;;;;;;21.76;77.58;97656.41;5069585;28;20063;-41
2023/07/10 05:01:26;;;;;;;8.30;4.45;;;;;;;21.66;77.61;97650.03;5073627;28;20051;-42
2023/07/10 05:03:53;;;;;;;9.30;4.15;;;;;;;21.80;76.72;97655.47;5066367;28;20044;-41
2023/07/10 05:06:20;;;;;;;9.00;4.50;;;;;;;22.19;74.21;97669.50;5067547;28;20713;-40
2023/07/10 05:08:47;;;;;;;9.60;4.57;;;;;;;22.43;73.39;97679.25;5066918;28;20048;-41
2023/07/10 05:11:14;;;;;;;8.38;4.00;;;;;;;22.65;71.63;97684.97;5070853;28;20068;-43
2023/07/10 05:13:41;;;;;;;8.15;4.07;;;;;;;22.99;70.16;97683.34;5065220;28;20040;-45
2023/07/10 05:16:08;;;;;;;8.25;3.75;;;;;;;23.22;69.14;97683.94;5062081;28;20048;-42
2023/07/10 05:18:35;;;;;;;7.45;4.22;;;;;;;23.40;68.32;97683.13;5068728;28;20047;-41
2023/07/10 05:21:02;;;;;;;8.25;4.22;;;;;;;23.55;67.27;97674.28;5060875;28;20059;-40
2023/07/10 05:23:29;;;;;;;7.65;3.95;;;;;;;23.78;65.77;97671.28;5070668;28;20673;-43
2023/07/10 05:26:16;;;;;;;10.73;3.78;;;;;;;24.00;64.79;97667.41;5065316;28;20406;-43
2023/07/10 05:28:43;;;;;;;6.45;3.90;;;;;;;24.18;64.84;97658.25;5067659;28;20052;-43
2023/07/10 05:31:11;;;;;;;7.43;4.53;;;;;;;24.26;63.62;97652.66;5065406;28;20521;-43
2023/07/10 05:33:39;;;;;;;7.45;4.45;;;;;;;24.34;63.52;97653.75;5060394;28;20044;-45
2023/07/10 05:36:10;;;;;;;9.18;3.60;;;;;;;24.41;63.34;97653.19;5066832;28;20604;-43
2023/07/10 05:38:36;;;;;;;7.10;3.53;;;;;;;24.47;64.02;97651.84;5062862;28;20043;-44
2023/07/10 05:41:04;;;;;;;10.18;4.15;;;;;;;24.51;64.30;97654.75;5063515;28;20040;-43
2023/07/10 05:43:32;;;;;;;8.70;4.40;;;;;;;24.59;63.40;97658.59;5065520;28;20720;-41
2023/07/10 05:45:59;;;;;;;7.28;4.18;;;;;;;24.74;62.59;97651.63;5062623;28;20041;-41
2023/07/10 05:48:26;;;;;;;6.93;3.20;;;;;;;24.93;61.52;97654.75;5063551;28;20041;-41
2023/07/10 05:50:53;;;;;;;8.45;3.47;;;;;;;25.17;60.45;97658.72;5069332;28;20044;-43
2023/07/10 05:53:20;;;;;;;6.07;2.85;;;;;;;25.37;59.21;97674.81;5065772;28;20426;-42
2023/07/10 05:55:49;;;;;;;6.47;3.20;;;;;;;25.46;58.96;97687.44;5063347;28;20098;-42
2023/07/10 05:58:17;;;;;;;8.02;3.30;;;;;;;25.53;59.05;97706.28;5067337;28;20044;-47
2023/07/10 06:00:47;;;;;;;9.35;3.40;;;;;;;25.54;58.70;97720.97;5058506;28;20454;-43
2023/07/10 06:03:14;;;;;;;5.07;3.38;;;;;;;25.48;58.38;97736.16;5065527;28;20096;-44
2023/07/10 06:05:41;;;;;;;7.72;3.13;;;;;;;25.51;58.63;97738.28;5068124;28;20480;-43
2023/07/10 06:08:10;;;;;;;5.70;3.17;;;;;;;25.54;58.03;97735.63;5066215;28;20033;-43
2023/07/10 06:10:36;;;;;;;7.05;3.28;;;;;;;25.63;57.96;97729.19;5069697;28;20040;-41
2023/07/10 06:13:03;;;;;;;7.30;3.20;;;;;;;25.61;57.95;97735.06;5066553;28;20051;-44
2023/07/10 06:15:30;;;;;;;9.82;3.45;;;;;;;25.64;57.73;97739.13;5066215;28;20415;-43
2023/07/10 06:17:56;;;;;;;5.32;3.00;;;;;;;25.75;57.73;97726.44;5064086;28;20040;-41
2023/07/10 06:20:23;;;;;;;6.20;3.28;;;;;;;25.74;57.39;97716.50;5069635;28;20562;-42
2023/07/10 06:22:50;;;;;;;7.10;3.05;;;;;;;25.80;57.45;97715.13;5062093;28;20369;-42
2023/07/10 06:25:16;;;;;;;6.30;3.10;;;;;;;25.87;57.75;97720.09;5069231;28;20048;-45
2023/07/10 06:27:43;;;;;;;6.47;3.00;;;;;;;25.88;57.28;97716.19;5061677;28;20132;-42
2023/07/10 06:30:11;;;;;;;6.63;3.40;;;;;;;25.74;57.38;97712.91;5065843;28;20072;-44
2023/07/10 06:32:37;;;;;;;6.85;3.30;;;;;;;25.78;57.16;97700.81;5069606;28;20050;-43
2023/07/10 06:35:05;;;;;;;5.50;3.10;;;;;;;25.67;57.87;97702.41;5063750;28;20126;-43
2023/07/10 06:37:32;;;;;;;8.88;2.95;;;;;;;25.65;57.55;97701.94;5066946;28;20151;-42
2023/07/10 06:40:07;;;;;;;5.32;3.20;;;;;;;25.70;58.29;97693.41;5063144;28;20102;-62
2023/07/10 06:42:35;;;;;;;9.82;3.58;;;;;;;25.57;58.07;97706.41;5060288;28;20091;-62
2023/07/10 06:45:02;;;;;;;7.85;3.10;;;;;;;25.70;58.63;97707.25;5055781;28;20560;-62
2023/07/10 06:47:31;;;;;;;6.63;3.30;;;;;;;25.86;57.64;97692.72;5069452;28;20045;-62
2023/07/10 06:49:59;;;;;;;5.47;3.00;;;;;;;25.93;57.19;97699.31;5064314;28;20044;-62
2023/07/10 06:52:29;;;;;;;;;;;;;;;26.12;58.04;97692.34;5071277;28;20059;-62
2023/07/10 06:54:55;;;;;;;10.60;3.45;;;;;;;25.94;56.93;97695.38;5064489;28;20002;-62
2023/07/10 06:57:22;;;;;;;10.13;3.95;;;;;;;25.95;57.03;97707.28;5064325;28;20959;-62
2023/07/10 06:59:48;;;;;;;6.53;3.20;;;;;;;25.53;58.79;97706.28;5069708;28;20075;-62
2023/07/10 07:02:15;;;;;;;7.35;3.30;;;;;;;25.65;58.33;97707.50;5073397;28;20624;-62
2023/07/10 07:04:42;;;;;;;7.60;2.88;;;;;;;25.67;58.01;97706.00;5065298;28;20048;-62
2023/07/10 07:07:08;;;;;;;6.38;3.10;;;;;;;25.64;58.44;97712.22;5076170;28;20047;-62
2023/07/10 07:09:35;;;;;;;6.35;3.22;;;;;;;25.68;58.63;97720.66;5074114;28;20051;-62
2023/07/10 07:12:01;;;;;;;6.35;3.38;;;;;;;25.67;58.78;97711.53;5075102;28;20648;-62
2023/07/10 07:14:28;;;;;;;6.07;3.03;;;;;;;25.76;59.29;97730.03;5065678;28;20142;-62
2023/07/10 07:16:54;;;;;;;8.25;3.35;;;;;;;25.79;58.97;97732.13;5071183;28;20610;-62
2023/07/10 07:19:21;;;;;;;6.30;3.40;;;;;;;25.77;60.10;97734.41;5065834;28;20049;-62
2023/07/10 07:21:48;;;;;;;7.00;3.58;;;;;;;25.82;59.95;97736.97;5061909;28;20048;-60
2023/07/10 07:24:14;;;;;;;6.05;3.60;;;;;;;25.95;60.30;97744.13;5063606;28;20491;-62
2023/07/10 07:26:41;;;;;;;7.50;3.45;;;;;;;25.99;60.13;97741.50;5066633;28;20549;-62
2023/07/10 07:29:07;;;;;;;5.15;3.05;;;;;;;26.08;59.85;97752.47;5063501;28;20075;-62
2023/07/10 07:31:34;;;;;;;7.53;3.30;;;;;;;26.24;60.40;97755.38;5060220;28;20044;-61
2023/07/10 07:34:00;;;;;;;5.63;3.58;;;;;;;26.07;61.19;97764.72;5066096;28;20040;-62
2023/07/10 07:36:32;;;;;;;6.15;3.10;;;;;;;26.18;60.30;97757.59;5064090;28;20119;-62
2023/07/10 07:38:58;;;;;;;8.43;3.60;;;;;;;26.31;60.44;97763.16;5063938;28;20044;-62
2023/07/10 07:41:25;;;;;;;9.25;3.85;;;;;;;26.22;60.38;97761.28;5063255;28;20044;-62
2023/07/10 07:43:51;;;;;;;5.45;3.40;;;;;;;26.02;61.40;97774.09;5062907;28;20051;-62
2023/07/10 07:46:18;;;;;;;6.72;3.30;;;;;;;26.02;62.01;97771.31;5063019;28;20499;-62
2023/07/10 07:48:44;;;;;;;8.23;4.30;;;;;;;25.95;61.88;97776.63;5063605;28;20783;-62
2023/07/10 07:51:11;;;;;;;8.55;3.60;;;;;;;25.70;62.82;97769.09;5065778;28;20036;-62
2023/07/10 07:53:41;;;;;;;9.30;3.28;;;;;;;25.77;63.40;97778.78;5063441;28;20519;-62
2023/07/10 07:56:08;;;;;;;9.60;3.65;;;;;;;25.69;64.14;97775.75;5060723;28;20064;-62
2023/07/10 07:58:34;;;;;;;7.43;3.50;;;;;;;25.82;63.63;97776.63;5063257;28;20521;-62
2023/07/10 08:01:02;;;;;;;6.20;3.58;;;;;;;25.98;63.60;97770.38;5062989;28;20040;-63
2023/07/10 08:03:29;;;;;;;7.18;3.67;;;;;;;26.06;63.57;97775.00;5062400;28;20044;-62
2023/07/10 08:05:56;;;;;;;7.68;3.60;;;;;;;26.40;62.54;97763.84;5065956;28;20131;-62
2023/07/10 08:08:23;;;;;;;6.55;3.60;;;;;;;26.57;62.08;97768.31;5064049;28;20056;-62
2023/07/10 08:10:50;;;;;;;7.70;4.32;;;;;;;26.73;61.63;97767.63;5061747;28;20131;-62
2023/07/10 08:13:19;;;;;;;6.35;3.83;;;;;;;26.76;61.27;97772.47;5061942;28;20067;-62
2023/07/10 08:15:46;;;;;;;6.40;3.47;;;;;;;26.79;61.52;97768.97;5061682;28;20052;-62
2023/07/10 08:18:13;;;;;;;7.20;4.00;;;;;;;26.63;61.90;97763.34;5063027;28;20124;-62
2023/07/10 08:20:40;;;;;;;8.73;3.90;;;;;;;26.76;61.94;97758.59;5066485;28;20036;-62
2023/07/10 08:23:06;;;;;;;8.00;3.97;;;;;;;26.75;62.13;97759.72;5058103;28;20128;-62
2023/07/10 08:25:33;;;;;;;7.60;4.07;;;;;;;26.83;60.88;97763.56;5064527;28;20059;-62
2023/07/10 08:28:00;;;;;;;7.03;4.05;;;;;;;26.81;59.92;97763.91;5061299;28;20058;-62
2023/07/10 08:30:27;;;;;;;7.65;4.15;;;;;;;26.85;59.94;97750.09;5062012;28;20476;-62
2023/07/10 08:32:54;;;;;;;7.95;4.93;;;;;;;26.77;60.92;97764.94;5061991;28;20102;-62
2023/07/10 08:35:22;;;;;;;7.70;4.50;;;;;;;26.57;62.13;97754.44;5062523;28;20478;-62
2023/07/10 08:37:49;;;;;;;7.55;4.28;;;;;;;26.84;62.03;97760.44;5064904;28;20119;-62
2023/07/10 08:40:22;;;;;;;8.20;4.35;;;;;;;27.00;61.53;97759.69;5061922;28;20049;-62
2023/07/10 08:42:49;;;;;;;7.53;3.75;;;;;;;27.11;59.95;97763.59;5061934;28;20051;-62
2023/07/10 08:45:28;;;;;;;6.70;3.90;;;;;;;26.96;60.83;97765.16;5061545;28;20044;-62
2023/07/10 08:48:02;;;;;;;7.05;4.07;;;;;;;26.83;61.30;97767.13;5061431;28;20079;-62
2023/07/10 08:50:31;;;;;;;7.50;4.32;;;;;;;26.96;61.46;97762.38;5060315;28;21400;-62
2023/07/10 08:53:09;;;;;;;7.40;4.20;;;;;;;27.31;60.04;97760.16;5061347;28;20049;-62
2023/07/10 08:55:42;;;;;;;7.43;4.60;;;;;;;27.08;60.51;97763.50;5059107;28;20518;-62
2023/07/10 08:58:21;;;;;;;9.07;4.10;;;;;;;26.94;61.65;97759.09;5056225;28;20040;-62
2023/07/10 09:00:51;;;;;;;7.35;4.13;;;;;;;27.24;60.95;97772.69;5059351;28;20056;-62
2023/07/10 09:03:44;;;;;;;7.55;4.40;;;;;;;27.46;59.33;97772.50;5061142;28;20101;-62
2023/07/10 09:06:18;;;;;;;7.70;3.97;;;;;;;27.39;59.82;97767.56;5063130;28;20120;-62
2023/07/10 09:08:48;;;;;;;10.10;4.13;;;;;;;27.40;59.63;97780.28;5061232;28;20166;-61
2023/07/10 09:11:15;;;;;;;8.15;4.63;;;;;;;27.58;59.08;97779.97;5062449;28;20037;-62
2023/07/10 09:13:56;;;;;;;6.82;4.00;;;;;;;27.77;57.70;97782.09;5061397;28;20058;-62
2023/07/10 09:16:23;;;;;;;5.95;4.18;;;;;;;27.76;57.65;97778.53;5061255;28;20127;-62
2023/07/10 09:19:10;;;;;;;7.45;4.15;;;;;;;27.62;56.23;97776.16;5069726;28;20122;-62
2023/07/10 09:21:40;;;;;;;5.72;4.00;;;;;;;27.52;56.46;97777.44;5061863;28;20136;-62
2023/07/10 09:24:17;;;;;;;8.55;4.43;;;;;;;27.67;56.36;97777.06;5061568;28;20089;-61
2023/07/10 09:26:43;;;;;;;12.75;4.55;;;;;;;27.61;56.51;97769.00;5062971;28;20048;-61
2023/07/10 09:29:11;;;;;;;13.20;4.15;;;;;;;27.75;54.99;97762.19;5061143;28;20047;-62
2023/07/10 09:31:49;;;;;;;7.57;3.85;;;;;;;27.63;55.12;97763.84;5062069;28;20059;-62
2023/07/10 09:34:23;;;;;;;7.28;4.40;;;;;;;27.71;55.26;97762.06;5059489;28;20048;-62
2023/07/10 09:36:52;;;;;;;5.70;3.97;;;;;;;27.96;54.88;97756.34;5061273;28;20058;-62
2023/07/10 09:39:19;;;;;;;7.80;4.00;;;;;;;28.18;54.86;97759.66;5061326;28;20037;-62
2023/07/10 09:41:47;;;;;;;9.05;4.18;;;;;;;27.87;55.58;97759.31;5061332;28;20132;-62
2023/07/10 09:44:17;;;;;;;9.50;4.00;;;;;;;27.94;55.76;97757.88;5060374;28;20400;-63
2023/07/10 09:46:44;;;;;;;7.00;3.72;;;;;;;28.08;55.42;97763.00;5063799;28;20132;-62
2023/07/10 09:49:20;;;;;;;6.90;4.10;;;;;;;27.94;55.74;97760.66;5064656;28;20047;-62
2023/07/10 09:51:55;;;;;;;7.97;4.00;;;;;;;28.00;54.97;97764.78;5061305;28;20044;-62
2023/07/10 09:54:22;;;;;;;5.75;3.50;;;;;;;28.00;54.60;97760.03;5059303;28;20049;-62
2023/07/10 09:56:51;;;;;;;8.15;3.80;;;;;;;28.07;55.60;97758.59;5063734;28;20048;-62
2023/07/10 09:59:25;;;;;;;8.52;4.30;;;;;;;28.29;54.55;97754.38;5059466;28;20039;-62
2023/07/10 10:01:54;;;;;;;6.50;4.53;;;;;;;28.31;53.63;97749.28;5061006;28;20055;-61
2023/07/10 10:04:25;;;;;;;7.20;3.95;;;;;;;28.29;54.34;97741.28;5063333;28;20082;-62
2023/07/10 10:07:04;;;;;;;7.25;3.92;;;;;;;28.28;53.86;97753.59;5062248;28;20496;-62
2023/07/10 10:09:31;;;;;;;6.95;3.63;;;;;;;28.54;53.39;97749.41;5061073;28;20048;-62
2023/07/10 10:12:12;;;;;;;7.35;3.75;;;;;;;28.61;53.25;97747.94;5064003;28;20120;-62
2023/07/10 10:14:52;;;;;;;6.50;3.72;;;;;;;28.73;51.72;97752.56;5054731;28;20049;-62
2023/07/10 10:17:23;;;;;;;7.10;4.10;;;;;;;28.43;52.25;97740.81;5059337;28;20040;-62
2023/07/10 10:19:54;;;;;;;8.32;4.60;;;;;;;28.50;52.47;97754.09;5061983;28;20126;-62
2023/07/10 10:22:27;;;;;;;8.50;3.97;;;;;;;28.32;52.99;97758.41;5063950;28;20037;-62
2023/07/10 10:24:53;;;;;;;6.88;4.32;;;;;;;28.38;51.44;97757.78;5062773;28;20056;-62
2023/07/10 10:27:38;;;;;;;8.27;4.40;;;;;;;28.57;51.61;97747.88;5064100;28;20041;-62
2023/07/10 10:30:20;;;;;;;6.53;3.85;;;;;;;28.88;50.42;97762.03;5068088;28;20043;-62
2023/07/10 10:33:18;;;;;;;6.80;4.00;;;;;;;28.79;50.75;97759.50;5062800;28;20048;-62
2023/07/10 10:35:56;;;;;;;5.65;3.88;;;;;;;29.07;49.59;97755.72;5057561;28;20446;-61
2023/07/10 10:38:38;;;;;;;8.60;4.78;;;;;;;28.71;49.02;97757.72;5064411;28;20596;-62
2023/07/10 10:41:26;;;;;;;7.53;3.72;;;;;;;28.48;49.62;97752.84;5063291;28;20052;-61
2023/07/10 10:44:03;;;;;;;11.98;4.07;;;;;;;28.60;51.16;97747.16;5062463;28;20414;-62
2023/07/10 10:46:48;;;;;;;7.32;3.90;;;;;;;28.77;49.56;97759.03;5063628;28;20041;-61
2023/07/10 10:49:27;;;;;;;7.70;4.00;;;;;;;28.59;48.87;97748.31;5061645;28;20052;-62
2023/07/10 10:52:02;;;;;;;7.63;4.15;;;;;;;28.73;48.54;97747.00;5063834;28;20520;-62
2023/07/10 10:54:44;;;;;;;6.57;3.65;;;;;;;28.85;48.39;97738.50;5061069;28;20509;-62
2023/07/10 10:57:41;;;;;;;6.22;3.65;;;;;;;28.90;48.11;97735.50;5061630;28;20074;-62
2023/07/10 11:00:24;;;;;;;7.78;4.15;;;;;;;29.15;47.59;97739.97;5061328;28;20032;-61
2023/07/10 11:03:12;;;;;;;8.25;4.20;;;;;;;29.16;46.50;97744.34;5060945;28;20053;-62
2023/07/10 11:05:43;;;;;;;6.57;3.75;;;;;;;29.30;44.47;97746.63;5063854;28;20472;-62
2023/07/10 11:08:20;;;;;;;6.28;4.00;;;;;;;28.97;45.29;97745.16;5061071;28;20115;-62
2023/07/10 11:10:49;;;;;;;8.82;3.70;;;;;;;29.25;43.93;97746.94;5061951;28;20056;-61
2023/07/10 11:13:34;;;;;;;6.45;3.70;;;;;;;29.25;44.25;97736.56;5070214;28;20036;-61
2023/07/10 11:16:03;;;;;;;6.93;4.10;;;;;;;28.92;43.06;97733.13;5063233;28;20076;-62
2023/07/10 11:18:31;;;;;;;5.95;3.47;;;;;;;29.05;43.68;97741.34;5063287;28;20047;-62
2023/07/10 11:21:01;;;;;;;5.20;3.10;;;;;;;29.29;40.50;97736.66;5063237;28;20068;-62
2023/07/10 11:23:32;;;;;;;6.28;3.33;;;;;;;29.74;40.89;97723.16;5062886;28;20523;-62
2023/07/10 11:26:16;;;;;;;6.18;3.53;;;;;;;29.87;39.75;97732.13;5063498;28;20067;-62
2023/07/10 11:29:30;;;;;;;6.82;4.10;;;;;;;29.80;40.99;97716.06;5066955;28;20044;-61
2023/07/10 11:32:09;;;;;;;5.18;3.30;;;;;;;29.96;41.96;97713.13;5062503;28;20426;-61
2023/07/10 11:34:46;;;;;;;6.35;3.75;;;;;;;30.08;42.69;97711.34;5066108;28;20102;-62
2023/07/10 11:37:41;;;;;;;6.25;3.67;;;;;;;29.77;42.92;97710.44;5060008;28;20047;-63
2023/07/10 11:40:23;;;;;;;5.65;3.78;;;;;;;29.77;43.41;97694.47;5060493;28;20044;-61
2023/07/10 11:42:50;;;;;;;9.25;3.67;;;;;;;30.23;42.42;97699.25;5061161;28;20051;-63
2023/07/10 11:45:16;;;;;;;6.75;3.35;;;;;;;30.43;39.77;97699.09;5064812;28;20048;-63
2023/07/10 11:47:44;;;;;;;8.32;4.00;;;;;;;30.07;40.07;97696.56;5062752;28;20048;-62